sensor_id;sensor_type;location;lat;lon;timestamp;P1;durP1;ratioP1;P2;durP2;ratioP2
22429;SDS011;11382;48.086;11.632;2023-08-01T00:00:08;4.30;;;2.72;;
22429;SDS011;11382;48.086;11.632;2023-08-01T00:02:36;4.75;;;2.65;;
22429;SDS011;11382;48.086;11.632;2023-08-01T00:05:05;5.43;;;2.70;;
22429;SDS011;11382;48.086;11.632;2023-08-01T00:07:33;3.90;;;2.63;;
22429;SDS011;11382;48.086;11.632;2023-08-01T00:10:04;3.95;;;2.40;;
22429;SDS011;11382;48.086;11.632;2023-08-01T00:12:32;4.10;;;2.22;;
22429;SDS011;11382;48.086;11.632;2023-08-01T00:15:00;3.63;;;2.40;;
22429;SDS011;11382;48.086;11.632;2023-08-01T00:17:30;5.13;;;2.53;;
22429;SDS011;11382;48.086;11.632;2023-08-01T00:19:58;2.80;;;2.30;;
22429;SDS011;11382;48.086;11.632;2023-08-01T00:22:26;4.18;;;2.25;;
22429;SDS011;11382;48.086;11.632;2023-08-01T00:24:54;3.38;;;2.30;;
22429;SDS011;11382;48.086;11.632;2023-08-01T00:27:22;3.15;;;2.20;;
22429;SDS011;11382;48.086;11.632;2023-08-01T00:29:51;2.97;;;2.60;;
22429;SDS011;11382;48.086;11.632;2023-08-01T00:32:18;4.80;;;2.70;;
22429;SDS011;11382;48.086;11.632;2023-08-01T00:34:51;4.72;;;2.60;;
22429;SDS011;11382;48.086;11.632;2023-08-01T00:37:19;3.72;;;2.78;;
22429;SDS011;11382;48.086;11.632;2023-08-01T00:39:47;3.40;;;2.63;;
22429;SDS011;11382;48.086;11.632;2023-08-01T00:42:15;4.07;;;2.65;;
22429;SDS011;11382;48.086;11.632;2023-08-01T00:44:43;4.70;;;2.85;;
22429;SDS011;11382;48.086;11.632;2023-08-01T00:47:11;4.20;;;2.58;;
22429;SDS011;11382;48.086;11.632;2023-08-01T00:49:39;4.25;;;2.78;;
22429;SDS011;11382;48.086;11.632;2023-08-01T00:52:09;4.05;;;2.60;;
22429;SDS011;11382;48.086;11.632;2023-08-01T00:54:37;4.22;;;2.63;;
22429;SDS011;11382;48.086;11.632;2023-08-01T00:57:06;8.73;;;3.00;;
22429;SDS011;11382;48.086;11.632;2023-08-01T00:59:34;4.68;;;2.83;;
22429;SDS011;11382;48.086;11.632;2023-08-01T01:02:02;3.60;;;2.17;;
22429;SDS011;11382;48.086;11.632;2023-08-01T01:04:31;5.50;;;3.05;;
22429;SDS011;11382;48.086;11.632;2023-08-01T01:07:00;5.47;;;3.08;;
22429;SDS011;11382;48.086;11.632;2023-08-01T01:09:32;5.75;;;3.08;;
22429;SDS011;11382;48.086;11.632;2023-08-01T01:12:00;3.55;;;2.75;;
22429;SDS011;11382;48.086;11.632;2023-08-01T01:14:30;5.13;;;2.97;;
22429;SDS011;11382;48.086;11.632;2023-08-01T01:16:58;4.15;;;2.88;;
22429;SDS011;11382;48.086;11.632;2023-08-01T01:19:27;3.50;;;2.60;;
22429;SDS011;11382;48.086;11.632;2023-08-01T01:21:56;4.68;;;3.10;;
22429;SDS011;11382;48.086;11.632;2023-08-01T01:24:25;3.90;;;2.63;;
22429;SDS011;11382;48.086;11.632;2023-08-01T01:26:54;8.15;;;3.45;;
22429;SDS011;11382;48.086;11.632;2023-08-01T01:29:26;4.53;;;2.92;;
22429;SDS011;11382;48.086;11.632;2023-08-01T01:31:54;3.97;;;3.13;;
22429;SDS011;11382;48.086;11.632;2023-08-01T01:34:23;4.78;;;3.00;;
22429;SDS011;11382;48.086;11.632;2023-08-01T01:36:52;6.30;;;2.90;;
22429;SDS011;11382;48.086;11.632;2023-08-01T01:39:21;4.20;;;2.95;;
22429;SDS011;11382;48.086;11.632;2023-08-01T01:41:49;4.90;;;2.80;;
22429;SDS011;11382;48.086;11.632;2023-08-01T01:44:17;4.30;;;3.00;;
22429;SDS011;11382;48.086;11.632;2023-08-01T01:46:45;5.30;;;2.83;;
22429;SDS011;11382;48.086;11.632;2023-08-01T01:49:16;3.47;;;2.67;;
22429;SDS011;11382;48.086;11.632;2023-08-01T01:51:43;6.05;;;3.00;;
22429;SDS011;11382;48.086;11.632;2023-08-01T01:54:11;6.93;;;3.00;;
22429;SDS011;11382;48.086;11.632;2023-08-01T01:56:40;6.32;;;2.83;;
22429;SDS011;11382;48.086;11.632;2023-08-01T01:59:08;3.60;;;2.67;;
22429;SDS011;11382;48.086;11.632;2023-08-01T02:01:36;6.32;;;2.90;;
22429;SDS011;11382;48.086;11.632;2023-08-01T02:04:04;5.53;;;3.17;;
22429;SDS011;11382;48.086;11.632;2023-08-01T02:06:32;3.83;;;2.92;;
22429;SDS011;11382;48.086;11.632;2023-08-01T02:09:00;4.05;;;2.88;;
22429;SDS011;11382;48.086;11.632;2023-08-01T02:11:29;6.78;;;3.20;;
22429;SDS011;11382;48.086;11.632;2023-08-01T02:13:58;4.20;;;2.90;;
22429;SDS011;11382;48.086;11.632;2023-08-01T02:16:28;3.80;;;2.80;;
22429;SDS011;11382;48.086;11.632;2023-08-01T02:18:56;4.47;;;2.90;;
22429;SDS011;11382;48.086;11.632;2023-08-01T02:21:24;3.88;;;2.70;;
22429;SDS011;11382;48.086;11.632;2023-08-01T02:23:52;3.58;;;2.45;;
22429;SDS011;11382;48.086;11.632;2023-08-01T02:26:20;6.85;;;2.95;;
22429;SDS011;11382;48.086;11.632;2023-08-01T02:28:49;4.32;;;2.80;;
22429;SDS011;11382;48.086;11.632;2023-08-01T02:31:18;3.53;;;2.83;;
22429;SDS011;11382;48.086;11.632;2023-08-01T02:33:46;4.18;;;2.97;;
22429;SDS011;11382;48.086;11.632;2023-08-01T02:36:15;3.67;;;2.72;;
22429;SDS011;11382;48.086;11.632;2023-08-01T02:38:42;4.63;;;2.78;;
22429;SDS011;11382;48.086;11.632;2023-08-01T02:41:11;4.35;;;3.00;;
22429;SDS011;11382;48.086;11.632;2023-08-01T02:43:39;5.20;;;2.88;;
22429;SDS011;11382;48.086;11.632;2023-08-01T02:46:07;3.90;;;2.78;;
22429;SDS011;11382;48.086;11.632;2023-08-01T02:48:37;4.10;;;2.83;;
22429;SDS011;11382;48.086;11.632;2023-08-01T02:51:06;4.32;;;2.60;;
22429;SDS011;11382;48.086;11.632;2023-08-01T02:53:35;3.72;;;2.90;;
22429;SDS011;11382;48.086;11.632;2023-08-01T02:56:06;4.93;;;2.80;;
22429;SDS011;11382;48.086;11.632;2023-08-01T02:58:36;3.92;;;2.80;;
22429;SDS011;11382;48.086;11.632;2023-08-01T03:01:05;3.75;;;2.72;;
22429;SDS011;11382;48.086;11.632;2023-08-01T03:03:37;4.07;;;2.80;;
22429;SDS011;11382;48.086;11.632;2023-08-01T03:06:05;6.03;;;2.97;;
22429;SDS011;11382;48.086;11.632;2023-08-01T03:08:33;7.03;;;2.90;;
22429;SDS011;11382;48.086;11.632;2023-08-01T03:11:01;5.95;;;3.20;;
22429;SDS011;11382;48.086;11.632;2023-08-01T03:13:29;4.15;;;3.10;;
22429;SDS011;11382;48.086;11.632;2023-08-01T03:15:57;4.13;;;2.92;;
22429;SDS011;11382;48.086;11.632;2023-08-01T03:18:25;5.28;;;2.90;;
22429;SDS011;11382;48.086;11.632;2023-08-01T03:20:55;5.25;;;3.20;;
22429;SDS011;11382;48.086;11.632;2023-08-01T03:23:23;4.53;;;2.72;;
22429;SDS011;11382;48.086;11.632;2023-08-01T03:25:51;4.65;;;2.80;;
22429;SDS011;11382;48.086;11.632;2023-08-01T03:28:21;4.43;;;2.97;;
22429;SDS011;11382;48.086;11.632;2023-08-01T03:30:49;3.72;;;2.80;;
22429;SDS011;11382;48.086;11.632;2023-08-01T03:33:19;5.03;;;2.72;;
22429;SDS011;11382;48.086;11.632;2023-08-01T03:35:47;4.05;;;2.47;;
22429;SDS011;11382;48.086;11.632;2023-08-01T03:38:17;5.30;;;2.97;;
22429;SDS011;11382;48.086;11.632;2023-08-01T03:40:45;5.00;;;2.90;;
22429;SDS011;11382;48.086;11.632;2023-08-01T03:43:13;5.88;;;2.72;;
22429;SDS011;11382;48.086;11.632;2023-08-01T03:45:40;5.35;;;3.00;;
22429;SDS011;11382;48.086;11.632;2023-08-01T03:48:09;6.13;;;2.90;;
22429;SDS011;11382;48.086;11.632;2023-08-01T03:50:37;5.05;;;2.88;;
22429;SDS011;11382;48.086;11.632;2023-08-01T03:53:05;6.07;;;3.10;;
22429;SDS011;11382;48.086;11.632;2023-08-01T03:55:35;3.58;;;2.67;;
22429;SDS011;11382;48.086;11.632;2023-08-01T03:58:03;4.28;;;3.08;;
22429;SDS011;11382;48.086;11.632;2023-08-01T04:00:31;5.55;;;3.00;;
22429;SDS011;11382;48.086;11.632;2023-08-01T04:03:00;4.20;;;2.75;;
22429;SDS011;11382;48.086;11.632;2023-08-01T04:05:28;3.88;;;2.83;;
22429;SDS011;11382;48.086;11.632;2023-08-01T04:07:56;5.10;;;2.90;;
22429;SDS011;11382;48.086;11.632;2023-08-01T04:10:24;5.88;;;3.00;;
22429;SDS011;11382;48.086;11.632;2023-08-01T04:12:53;4.93;;;3.45;;
22429;SDS011;11382;48.086;11.632;2023-08-01T04:15:21;4.57;;;2.88;;
22429;SDS011;11382;48.086;11.632;2023-08-01T04:17:49;5.25;;;2.95;;
22429;SDS011;11382;48.086;11.632;2023-08-01T04:20:18;7.07;;;3.30;;
22429;SDS011;11382;48.086;11.632;2023-08-01T04:22:46;4.63;;;2.83;;
22429;SDS011;11382;48.086;11.632;2023-08-01T04:25:14;5.97;;;3.00;;
22429;SDS011;11382;48.086;11.632;2023-08-01T04:27:41;4.65;;;2.90;;
22429;SDS011;11382;48.086;11.632;2023-08-01T04:30:11;4.25;;;3.10;;
22429;SDS011;11382;48.086;11.632;2023-08-01T04:32:39;5.20;;;3.17;;
22429;SDS011;11382;48.086;11.632;2023-08-01T04:35:07;4.90;;;3.08;;
22429;SDS011;11382;48.086;11.632;2023-08-01T04:37:36;4.20;;;3.30;;
22429;SDS011;11382;48.086;11.632;2023-08-01T04:40:04;4.28;;;3.15;;
22429;SDS011;11382;48.086;11.632;2023-08-01T04:42:33;4.25;;;3.00;;
22429;SDS011;11382;48.086;11.632;2023-08-01T04:45:01;5.15;;;3.40;;
22429;SDS011;11382;48.086;11.632;2023-08-01T04:47:30;4.88;;;3.15;;
22429;SDS011;11382;48.086;11.632;2023-08-01T04:49:58;5.45;;;3.58;;
22429;SDS011;11382;48.086;11.632;2023-08-01T04:52:26;5.75;;;3.60;;
22429;SDS011;11382;48.086;11.632;2023-08-01T04:54:54;8.50;;;3.80;;
22429;SDS011;11382;48.086;11.632;2023-08-01T04:57:22;6.15;;;3.70;;
22429;SDS011;11382;48.086;11.632;2023-08-01T04:59:50;6.07;;;3.70;;
22429;SDS011;11382;48.086;11.632;2023-08-01T05:02:18;6.43;;;3.78;;
22429;SDS011;11382;48.086;11.632;2023-08-01T05:04:47;5.95;;;3.47;;
22429;SDS011;11382;48.086;11.632;2023-08-01T05:07:15;9.23;;;3.85;;
22429;SDS011;11382;48.086;11.632;2023-08-01T05:09:43;5.78;;;4.10;;
22429;SDS011;11382;48.086;11.632;2023-08-01T05:12:11;5.93;;;3.88;;
22429;SDS011;11382;48.086;11.632;2023-08-01T05:14:39;5.25;;;4.05;;
22429;SDS011;11382;48.086;11.632;2023-08-01T05:17:07;5.68;;;3.65;;
22429;SDS011;11382;48.086;11.632;2023-08-01T05:19:35;5.65;;;3.58;;
22429;SDS011;11382;48.086;11.632;2023-08-01T05:22:05;5.07;;;3.40;;
22429;SDS011;11382;48.086;11.632;2023-08-01T05:24:33;5.22;;;3.65;;
22429;SDS011;11382;48.086;11.632;2023-08-01T05:27:01;7.03;;;3.92;;
22429;SDS011;11382;48.086;11.632;2023-08-01T05:29:30;5.93;;;4.28;;
22429;SDS011;11382;48.086;11.632;2023-08-01T05:31:58;5.30;;;4.10;;
22429;SDS011;11382;48.086;11.632;2023-08-01T05:34:26;5.45;;;3.90;;
22429;SDS011;11382;48.086;11.632;2023-08-01T05:36:54;7.57;;;4.22;;
22429;SDS011;11382;48.086;11.632;2023-08-01T05:39:23;6.28;;;4.30;;
22429;SDS011;11382;48.086;11.632;2023-08-01T05:41:51;7.32;;;4.22;;
22429;SDS011;11382;48.086;11.632;2023-08-01T05:44:19;9.15;;;4.28;;
22429;SDS011;11382;48.086;11.632;2023-08-01T05:46:47;7.22;;;4.25;;
22429;SDS011;11382;48.086;11.632;2023-08-01T05:49:15;5.70;;;4.00;;
22429;SDS011;11382;48.086;11.632;2023-08-01T05:51:43;7.18;;;4.10;;
22429;SDS011;11382;48.086;11.632;2023-08-01T05:54:11;7.80;;;4.60;;
22429;SDS011;11382;48.086;11.632;2023-08-01T05:56:40;7.53;;;4.07;;
22429;SDS011;11382;48.086;11.632;2023-08-01T05:59:09;5.53;;;3.95;;
22429;SDS011;11382;48.086;11.632;2023-08-01T06:01:37;7.65;;;4.20;;
22429;SDS011;11382;48.086;11.632;2023-08-01T06:04:05;6.43;;;4.05;;
22429;SDS011;11382;48.086;11.632;2023-08-01T06:06:34;7.72;;;4.30;;
22429;SDS011;11382;48.086;11.632;2023-08-01T06:09:02;8.77;;;3.97;;
22429;SDS011;11382;48.086;11.632;2023-08-01T06:11:30;7.35;;;3.83;;
22429;SDS011;11382;48.086;11.632;2023-08-01T06:14:01;5.38;;;4.00;;
22429;SDS011;11382;48.086;11.632;2023-08-01T06:16:29;5.47;;;3.78;;
22429;SDS011;11382;48.086;11.632;2023-08-01T06:18:57;7.00;;;3.90;;
22429;SDS011;11382;48.086;11.632;2023-08-01T06:21:25;6.10;;;3.40;;
22429;SDS011;11382;48.086;11.632;2023-08-01T06:23:53;6.57;;;4.20;;
22429;SDS011;11382;48.086;11.632;2023-08-01T06:26:21;6.97;;;3.67;;
22429;SDS011;11382;48.086;11.632;2023-08-01T06:28:49;5.45;;;3.63;;
22429;SDS011;11382;48.086;11.632;2023-08-01T06:31:20;7.00;;;4.65;;
22429;SDS011;11382;48.086;11.632;2023-08-01T06:33:49;6.40;;;3.80;;
22429;SDS011;11382;48.086;11.632;2023-08-01T06:36:17;5.72;;;3.92;;
22429;SDS011;11382;48.086;11.632;2023-08-01T06:38:44;4.88;;;3.70;;
22429;SDS011;11382;48.086;11.632;2023-08-01T06:41:13;6.32;;;3.80;;
22429;SDS011;11382;48.086;11.632;2023-08-01T06:43:41;7.72;;;3.35;;
22429;SDS011;11382;48.086;11.632;2023-08-01T06:46:09;8.68;;;4.30;;
22429;SDS011;11382;48.086;11.632;2023-08-01T06:48:39;10.10;;;3.70;;
22429;SDS011;11382;48.086;11.632;2023-08-01T06:51:07;8.23;;;4.03;;
22429;SDS011;11382;48.086;11.632;2023-08-01T06:53:35;5.32;;;3.58;;
22429;SDS011;11382;48.086;11.632;2023-08-01T06:56:03;7.50;;;4.22;;
22429;SDS011;11382;48.086;11.632;2023-08-01T06:58:31;4.78;;;3.45;;
22429;SDS011;11382;48.086;11.632;2023-08-01T07:00:59;7.80;;;3.50;;
22429;SDS011;11382;48.086;11.632;2023-08-01T07:03:27;6.40;;;3.92;;
22429;SDS011;11382;48.086;11.632;2023-08-01T07:05:56;5.93;;;3.88;;
22429;SDS011;11382;48.086;11.632;2023-08-01T07:08:25;4.43;;;3.38;;
22429;SDS011;11382;48.086;11.632;2023-08-01T07:10:53;6.13;;;3.72;;
22429;SDS011;11382;48.086;11.632;2023-08-01T07:13:20;9.10;;;3.60;;
22429;SDS011;11382;48.086;11.632;2023-08-01T07:15:50;5.38;;;3.75;;
22429;SDS011;11382;48.086;11.632;2023-08-01T07:18:18;6.20;;;3.25;;
22429;SDS011;11382;48.086;11.632;2023-08-01T07:20:46;5.65;;;3.65;;
22429;SDS011;11382;48.086;11.632;2023-08-01T07:23:15;5.50;;;3.28;;
22429;SDS011;11382;48.086;11.632;2023-08-01T07:25:43;6.25;;;3.28;;
22429;SDS011;11382;48.086;11.632;2023-08-01T07:28:11;4.97;;;3.38;;
22429;SDS011;11382;48.086;11.632;2023-08-01T07:30:39;4.38;;;2.92;;
22429;SDS011;11382;48.086;11.632;2023-08-01T07:33:07;5.82;;;3.05;;
22429;SDS011;11382;48.086;11.632;2023-08-01T07:35:35;4.57;;;3.10;;
22429;SDS011;11382;48.086;11.632;2023-08-01T07:38:03;4.78;;;3.25;;
22429;SDS011;11382;48.086;11.632;2023-08-01T07:40:35;4.78;;;3.00;;
22429;SDS011;11382;48.086;11.632;2023-08-01T07:43:03;5.53;;;2.78;;
22429;SDS011;11382;48.086;11.632;2023-08-01T07:45:32;5.88;;;3.03;;
22429;SDS011;11382;48.086;11.632;2023-08-01T07:48:01;4.05;;;2.83;;
22429;SDS011;11382;48.086;11.632;2023-08-01T07:50:29;8.02;;;3.10;;
22429;SDS011;11382;48.086;11.632;2023-08-01T07:52:57;4.82;;;3.60;;
22429;SDS011;11382;48.086;11.632;2023-08-01T07:55:25;6.45;;;2.92;;
22429;SDS011;11382;48.086;11.632;2023-08-01T07:57:54;5.22;;;3.20;;
22429;SDS011;11382;48.086;11.632;2023-08-01T08:00:22;3.83;;;3.17;;
22429;SDS011;11382;48.086;11.632;2023-08-01T08:02:50;4.18;;;3.20;;
22429;SDS011;11382;48.086;11.632;2023-08-01T08:05:18;6.28;;;3.55;;
22429;SDS011;11382;48.086;11.632;2023-08-01T08:07:46;4.85;;;2.97;;
22429;SDS011;11382;48.086;11.632;2023-08-01T08:10:14;9.50;;;3.00;;
22429;SDS011;11382;48.086;11.632;2023-08-01T08:12:42;4.93;;;3.33;;
22429;SDS011;11382;48.086;11.632;2023-08-01T08:15:11;5.55;;;2.83;;
22429;SDS011;11382;48.086;11.632;2023-08-01T08:17:42;5.55;;;3.22;;
22429;SDS011;11382;48.086;11.632;2023-08-01T08:20:10;5.88;;;3.25;;
22429;SDS011;11382;48.086;11.632;2023-08-01T08:22:38;5.35;;;3.45;;
22429;SDS011;11382;48.086;11.632;2023-08-01T08:25:06;5.57;;;3.42;;
22429;SDS011;11382;48.086;11.632;2023-08-01T08:27:34;4.65;;;3.05;;
22429;SDS011;11382;48.086;11.632;2023-08-01T08:30:02;7.28;;;3.55;;
22429;SDS011;11382;48.086;11.632;2023-08-01T08:32:33;5.10;;;3.38;;
22429;SDS011;11382;48.086;11.632;2023-08-01T08:35:01;5.95;;;3.20;;
22429;SDS011;11382;48.086;11.632;2023-08-01T08:37:29;7.22;;;3.40;;
22429;SDS011;11382;48.086;11.632;2023-08-01T08:39:57;5.00;;;3.10;;
22429;SDS011;11382;48.086;11.632;2023-08-01T08:42:25;5.43;;;3.35;;
22429;SDS011;11382;48.086;11.632;2023-08-01T08:44:54;4.47;;;3.00;;
22429;SDS011;11382;48.086;11.632;2023-08-01T08:47:24;5.10;;;3.45;;
22429;SDS011;11382;48.086;11.632;2023-08-01T08:49:55;5.03;;;3.30;;
22429;SDS011;11382;48.086;11.632;2023-08-01T08:52:24;4.68;;;3.28;;
22429;SDS011;11382;48.086;11.632;2023-08-01T08:54:52;4.93;;;3.35;;
22429;SDS011;11382;48.086;11.632;2023-08-01T08:57:22;6.82;;;3.22;;
22429;SDS011;11382;48.086;11.632;2023-08-01T08:59:51;5.70;;;3.60;;
22429;SDS011;11382;48.086;11.632;2023-08-01T09:02:20;8.75;;;4.00;;
22429;SDS011;11382;48.086;11.632;2023-08-01T09:04:48;5.70;;;3.67;;
22429;SDS011;11382;48.086;11.632;2023-08-01T09:07:18;5.32;;;3.80;;
22429;SDS011;11382;48.086;11.632;2023-08-01T09:09:50;3.70;;;3.00;;
22429;SDS011;11382;48.086;11.632;2023-08-01T09:12:18;5.50;;;3.63;;
22429;SDS011;11382;48.086;11.632;2023-08-01T09:14:48;5.55;;;3.80;;
22429;SDS011;11382;48.086;11.632;2023-08-01T09:17:18;5.97;;;3.38;;
22429;SDS011;11382;48.086;11.632;2023-08-01T09:19:46;4.95;;;3.42;;
22429;SDS011;11382;48.086;11.632;2023-08-01T09:22:14;6.78;;;3.70;;
22429;SDS011;11382;48.086;11.632;2023-08-01T09:24:51;6.22;;;3.50;;
22429;SDS011;11382;48.086;11.632;2023-08-01T09:27:20;4.93;;;3.63;;
22429;SDS011;11382;48.086;11.632;2023-08-01T09:29:49;5.30;;;3.75;;
22429;SDS011;11382;48.086;11.632;2023-08-01T09:32:17;5.32;;;3.45;;
22429;SDS011;11382;48.086;11.632;2023-08-01T09:34:45;6.35;;;4.13;;
22429;SDS011;11382;48.086;11.632;2023-08-01T09:37:14;5.70;;;3.55;;
22429;SDS011;11382;48.086;11.632;2023-08-01T09:39:42;5.95;;;3.63;;
22429;SDS011;11382;48.086;11.632;2023-08-01T09:42:14;5.00;;;3.30;;
22429;SDS011;11382;48.086;11.632;2023-08-01T09:44:44;6.90;;;4.00;;
22429;SDS011;11382;48.086;11.632;2023-08-01T09:47:13;5.95;;;3.20;;
22429;SDS011;11382;48.086;11.632;2023-08-01T09:49:47;6.15;;;3.60;;
22429;SDS011;11382;48.086;11.632;2023-08-01T09:52:25;5.50;;;3.28;;
22429;SDS011;11382;48.086;11.632;2023-08-01T09:54:54;5.35;;;3.45;;
22429;SDS011;11382;48.086;11.632;2023-08-01T09:57:23;4.50;;;3.42;;
22429;SDS011;11382;48.086;11.632;2023-08-01T09:59:56;5.10;;;3.70;;
22429;SDS011;11382;48.086;11.632;2023-08-01T10:02:25;4.50;;;3.38;;
22429;SDS011;11382;48.086;11.632;2023-08-01T10:04:56;6.00;;;3.92;;
22429;SDS011;11382;48.086;11.632;2023-08-01T10:07:25;4.75;;;3.38;;
22429;SDS011;11382;48.086;11.632;2023-08-01T10:09:57;6.72;;;3.78;;
22429;SDS011;11382;48.086;11.632;2023-08-01T10:12:27;5.63;;;3.47;;
22429;SDS011;11382;48.086;11.632;2023-08-01T10:14:56;8.02;;;3.92;;
22429;SDS011;11382;48.086;11.632;2023-08-01T10:17:25;4.60;;;3.35;;
22429;SDS011;11382;48.086;11.632;2023-08-01T10:19:55;5.63;;;3.83;;
22429;SDS011;11382;48.086;11.632;2023-08-01T10:22:24;6.68;;;3.35;;
22429;SDS011;11382;48.086;11.632;2023-08-01T10:24:53;6.10;;;3.90;;
22429;SDS011;11382;48.086;11.632;2023-08-01T10:27:21;4.93;;;3.33;;
22429;SDS011;11382;48.086;11.632;2023-08-01T10:29:58;5.45;;;3.38;;
22429;SDS011;11382;48.086;11.632;2023-08-01T10:32:31;5.80;;;3.80;;
22429;SDS011;11382;48.086;11.632;2023-08-01T10:35:00;6.85;;;4.20;;
22429;SDS011;11382;48.086;11.632;2023-08-01T10:37:38;6.78;;;3.50;;
22429;SDS011;11382;48.086;11.632;2023-08-01T10:40:07;5.88;;;3.47;;
22429;SDS011;11382;48.086;11.632;2023-08-01T10:42:37;6.10;;;3.40;;
22429;SDS011;11382;48.086;11.632;2023-08-01T10:45:18;7.13;;;3.28;;
22429;SDS011;11382;48.086;11.632;2023-08-01T10:47:48;6.82;;;3.88;;
22429;SDS011;11382;48.086;11.632;2023-08-01T10:50:16;5.65;;;3.30;;
22429;SDS011;11382;48.086;11.632;2023-08-01T10:52:45;4.32;;;3.13;;
22429;SDS011;11382;48.086;11.632;2023-08-01T10:55:13;3.67;;;2.88;;
22429;SDS011;11382;48.086;11.632;2023-08-01T10:57:47;7.40;;;3.60;;
22429;SDS011;11382;48.086;11.632;2023-08-01T11:00:17;6.15;;;3.58;;
22429;SDS011;11382;48.086;11.632;2023-08-01T11:02:48;6.80;;;3.38;;
22429;SDS011;11382;48.086;11.632;2023-08-01T11:05:18;6.90;;;3.13;;
22429;SDS011;11382;48.086;11.632;2023-08-01T11:07:53;5.05;;;3.33;;
22429;SDS011;11382;48.086;11.632;2023-08-01T11:10:26;5.82;;;3.28;;
22429;SDS011;11382;48.086;11.632;2023-08-01T11:12:55;6.38;;;3.47;;
22429;SDS011;11382;48.086;11.632;2023-08-01T11:15:29;6.50;;;3.40;;
22429;SDS011;11382;48.086;11.632;2023-08-01T11:17:57;6.97;;;2.97;;
22429;SDS011;11382;48.086;11.632;2023-08-01T11:20:25;4.28;;;2.60;;
22429;SDS011;11382;48.086;11.632;2023-08-01T11:22:55;4.57;;;2.17;;
22429;SDS011;11382;48.086;11.632;2023-08-01T11:25:34;2.78;;;2.30;;
22429;SDS011;11382;48.086;11.632;2023-08-01T11:28:05;2.50;;;2.08;;
22429;SDS011;11382;48.086;11.632;2023-08-01T11:30:37;2.25;;;1.92;;
22429;SDS011;11382;48.086;11.632;2023-08-01T11:33:15;2.70;;;2.10;;
22429;SDS011;11382;48.086;11.632;2023-08-01T11:35:43;3.00;;;2.33;;
22429;SDS011;11382;48.086;11.632;2023-08-01T11:38:11;4.00;;;2.53;;
22429;SDS011;11382;48.086;11.632;2023-08-01T11:40:39;4.30;;;2.63;;
22429;SDS011;11382;48.086;11.632;2023-08-01T11:43:09;3.80;;;2.42;;
22429;SDS011;11382;48.086;11.632;2023-08-01T11:45:47;2.47;;;1.92;;
22429;SDS011;11382;48.086;11.632;2023-08-01T11:48:15;4.05;;;2.30;;
22429;SDS011;11382;48.086;11.632;2023-08-01T11:50:45;4.28;;;2.58;;
22429;SDS011;11382;48.086;11.632;2023-08-01T11:53:19;3.10;;;2.53;;
22429;SDS011;11382;48.086;11.632;2023-08-01T11:55:47;4.18;;;2.40;;
22429;SDS011;11382;48.086;11.632;2023-08-01T11:58:27;2.95;;;2.47;;
22429;SDS011;11382;48.086;11.632;2023-08-01T12:01:02;3.60;;;2.88;;
22429;SDS011;11382;48.086;11.632;2023-08-01T12:03:41;4.10;;;2.65;;
22429;SDS011;11382;48.086;11.632;2023-08-01T12:06:11;3.03;;;2.38;;
22429;SDS011;11382;48.086;11.632;2023-08-01T12:08:40;2.85;;;2.33;;
22429;SDS011;11382;48.086;11.632;2023-08-01T12:11:17;3.83;;;2.60;;
22429;SDS011;11382;48.086;11.632;2023-08-01T12:13:46;3.45;;;2.45;;
22429;SDS011;11382;48.086;11.632;2023-08-01T12:16:16;3.40;;;2.53;;
22429;SDS011;11382;48.086;11.632;2023-08-01T12:18:46;3.53;;;2.58;;
22429;SDS011;11382;48.086;11.632;2023-08-01T12:21:25;3.22;;;2.40;;
22429;SDS011;11382;48.086;11.632;2023-08-01T12:23:53;2.90;;;2.50;;
22429;SDS011;11382;48.086;11.632;2023-08-01T12:26:22;4.05;;;2.53;;
22429;SDS011;11382;48.086;11.632;2023-08-01T12:28:50;3.13;;;2.15;;
22429;SDS011;11382;48.086;11.632;2023-08-01T12:31:20;3.47;;;2.53;;
22429;SDS011;11382;48.086;11.632;2023-08-01T12:33:49;3.72;;;2.28;;
22429;SDS011;11382;48.086;11.632;2023-08-01T12:36:18;3.05;;;2.05;;
22429;SDS011;11382;48.086;11.632;2023-08-01T12:38:47;4.30;;;2.40;;
22429;SDS011;11382;48.086;11.632;2023-08-01T12:41:15;3.63;;;2.10;;
22429;SDS011;11382;48.086;11.632;2023-08-01T12:43:43;2.97;;;2.20;;
22429;SDS011;11382;48.086;11.632;2023-08-01T12:46:11;3.53;;;2.42;;
22429;SDS011;11382;48.086;11.632;2023-08-01T12:48:40;3.65;;;2.08;;
22429;SDS011;11382;48.086;11.632;2023-08-01T12:51:08;3.78;;;2.05;;
22429;SDS011;11382;48.086;11.632;2023-08-01T12:53:36;3.25;;;1.85;;
22429;SDS011;11382;48.086;11.632;2023-08-01T12:56:09;3.42;;;2.10;;
22429;SDS011;11382;48.086;11.632;2023-08-01T12:58:37;2.92;;;2.20;;
22429;SDS011;11382;48.086;11.632;2023-08-01T13:01:05;2.67;;;1.90;;
22429;SDS011;11382;48.086;11.632;2023-08-01T13:03:34;2.40;;;1.90;;
22429;SDS011;11382;48.086;11.632;2023-08-01T13:06:03;5.07;;;2.42;;
22429;SDS011;11382;48.086;11.632;2023-08-01T13:08:31;2.20;;;1.90;;
22429;SDS011;11382;48.086;11.632;2023-08-01T13:10:59;2.47;;;1.92;;
22429;SDS011;11382;48.086;11.632;2023-08-01T13:13:29;2.13;;;1.70;;
22429;SDS011;11382;48.086;11.632;2023-08-01T13:15:57;4.68;;;1.60;;
22429;SDS011;11382;48.086;11.632;2023-08-01T13:18:25;3.00;;;1.90;;
22429;SDS011;11382;48.086;11.632;2023-08-01T13:20:52;1.88;;;1.73;;
22429;SDS011;11382;48.086;11.632;2023-08-01T13:23:22;2.78;;;1.88;;
22429;SDS011;11382;48.086;11.632;2023-08-01T13:25:50;2.30;;;2.00;;
22429;SDS011;11382;48.086;11.632;2023-08-01T13:28:18;3.47;;;1.67;;
22429;SDS011;11382;48.086;11.632;2023-08-01T13:30:46;3.10;;;2.10;;
22429;SDS011;11382;48.086;11.632;2023-08-01T13:33:14;2.78;;;2.25;;
22429;SDS011;11382;48.086;11.632;2023-08-01T13:35:42;2.97;;;1.90;;
22429;SDS011;11382;48.086;11.632;2023-08-01T13:38:10;3.28;;;2.10;;
22429;SDS011;11382;48.086;11.632;2023-08-01T13:40:40;3.13;;;2.00;;
22429;SDS011;11382;48.086;11.632;2023-08-01T13:43:08;3.50;;;2.13;;
22429;SDS011;11382;48.086;11.632;2023-08-01T13:45:36;3.42;;;2.13;;
22429;SDS011;11382;48.086;11.632;2023-08-01T13:48:04;3.17;;;2.20;;
22429;SDS011;11382;48.086;11.632;2023-08-01T13:50:32;3.20;;;2.20;;
22429;SDS011;11382;48.086;11.632;2023-08-01T13:53:00;3.22;;;2.15;;
22429;SDS011;11382;48.086;11.632;2023-08-01T13:55:28;2.67;;;2.20;;
22429;SDS011;11382;48.086;11.632;2023-08-01T13:57:58;3.13;;;2.30;;
22429;SDS011;11382;48.086;11.632;2023-08-01T14:00:26;2.85;;;2.15;;
22429;SDS011;11382;48.086;11.632;2023-08-01T14:02:54;3.42;;;1.98;;
22429;SDS011;11382;48.086;11.632;2023-08-01T14:05:24;3.03;;;2.00;;
22429;SDS011;11382;48.086;11.632;2023-08-01T14:07:52;4.13;;;2.08;;
22429;SDS011;11382;48.086;11.632;2023-08-01T14:10:20;2.90;;;1.88;;
22429;SDS011;11382;48.086;11.632;2023-08-01T14:12:49;2.67;;;1.70;;
22429;SDS011;11382;48.086;11.632;2023-08-01T14:15:18;2.63;;;2.00;;
22429;SDS011;11382;48.086;11.632;2023-08-01T14:17:46;4.47;;;1.90;;
22429;SDS011;11382;48.086;11.632;2023-08-01T14:20:14;2.05;;;1.80;;
22429;SDS011;11382;48.086;11.632;2023-08-01T14:22:43;2.45;;;1.75;;
22429;SDS011;11382;48.086;11.632;2023-08-01T14:25:12;3.15;;;2.10;;
22429;SDS011;11382;48.086;11.632;2023-08-01T14:27:40;2.30;;;1.65;;
22429;SDS011;11382;48.086;11.632;2023-08-01T14:30:08;1.73;;;1.50;;
22429;SDS011;11382;48.086;11.632;2023-08-01T14:32:38;2.45;;;1.95;;
22429;SDS011;11382;48.086;11.632;2023-08-01T14:35:06;1.98;;;1.75;;
22429;SDS011;11382;48.086;11.632;2023-08-01T14:37:36;3.90;;;1.70;;
22429;SDS011;11382;48.086;11.632;2023-08-01T14:40:04;4.75;;;1.70;;
22429;SDS011;11382;48.086;11.632;2023-08-01T14:42:33;3.63;;;1.83;;